Time;durP1;ratioP1;P1;durP2;ratioP2;P2;SDS_P1;SDS_P2;PMS_P1;PMS_P2;Temp;Humidity;BMP_temperature;BMP_pressure;BME280_temperature;BME280_humidity;BME280_pressure;Samples;Min_cycle;Max_cycle;Signal;HPM_P1;HPM_P2
2021/11/08 00:00:12;;;;;;;9.98;7.10;;;;;;;6.17;76.37;96381.36;1757418;82;21030;-82
2021/11/08 00:02:40;;;;;;;8.13;6.25;;;;;;;6.13;76.45;96379.25;1730926;83;20978;-82
2021/11/08 00:05:06;;;;;;;6.92;5.05;;;;;;;6.12;76.69;96380.22;1730150;82;21036;-83
2021/11/08 00:07:33;;;;;;;7.05;5.75;;;;;;;6.11;76.68;96380.70;1730826;83;21013;-82
2021/11/08 00:09:59;;;;;;;6.55;5.95;;;;;;;6.08;76.47;96379.72;1730417;82;20980;-82
2021/11/08 00:12:25;;;;;;;9.35;7.45;;;;;;;6.08;76.47;96387.46;1731024;83;21378;-82
2021/11/08 00:14:57;;;;;;;7.87;5.72;;;;;;;6.09;76.45;96381.34;1730944;83;21044;-82
2021/11/08 00:22:16;;;;;;;9.65;6.30;;;;;;;6.07;76.46;96385.84;1757631;82;21096;-82
2021/11/08 00:24:47;;;;;;;7.75;5.92;;;;;;;6.05;76.45;96383.91;1757709;82;21061;-82
2021/11/08 00:27:11;;;;;;;8.78;6.03;;;;;;;6.07;76.33;96387.62;1756963;82;21103;-82
2021/11/08 00:29:37;;;;;;;7.58;6.37;;;;;;;6.07;76.60;96385.84;1757845;82;21404;-82
2021/11/08 00:32:06;;;;;;;9.35;6.62;;;;;;;6.10;76.33;96393.27;1757510;82;21049;-82
2021/11/08 00:34:32;;;;;;;9.65;6.80;;;;;;;6.15;76.33;96394.91;1710038;82;21435;-82
2021/11/08 00:36:58;;;;;;;12.07;8.98;;;;;;;6.22;76.47;96398.50;1757601;81;20962;-82
2021/11/08 00:39:25;;;;;;;10.20;7.62;;;;;;;6.25;76.45;96398.19;1757638;82;21064;-82
2021/11/08 00:41:52;;;;;;;7.45;6.55;;;;;;;6.26;76.48;96404.16;1710071;82;21028;-82
2021/11/08 00:44:19;;;;;;;8.00;6.55;;;;;;;6.25;76.36;96407.22;1758822;81;21079;-83
2021/11/08 00:46:45;;;;;;;7.97;6.87;;;;;;;6.29;76.54;96412.88;1760485;81;21077;-83
2021/11/08 00:49:12;;;;;;;8.65;5.78;;;;;;;6.31;76.21;96415.62;1760516;81;21033;-82
2021/11/08 00:51:41;;;;;;;6.50;5.55;;;;;;;6.36;76.13;96411.80;1760399;81;21336;-82
2021/11/08 00:54:10;;;;;;;7.20;6.37;;;;;;;6.41;76.21;96414.23;1760445;81;20966;-82
2021/11/08 00:56:33;;;;;;;8.58;6.75;;;;;;;6.41;76.02;96416.81;1759996;81;21005;-82
2021/11/08 00:58:59;;;;;;;8.03;6.17;;;;;;;6.41;76.10;96422.45;1760379;81;20977;-83
2021/11/08 01:01:25;;;;;;;10.55;7.67;;;;;;;6.40;76.08;96422.94;1760736;81;21342;-82
2021/11/08 01:03:52;;;;;;;11.12;7.53;;;;;;;6.37;75.97;96427.13;1760356;81;20988;-82
2021/11/08 01:06:18;;;;;;;8.30;6.47;;;;;;;6.36;76.20;96430.66;1760313;81;22020;-82
2021/11/08 01:08:44;;;;;;;8.40;5.80;;;;;;;6.37;76.09;96434.05;1760497;81;20969;-82
2021/11/08 01:11:13;;;;;;;7.15;5.87;;;;;;;6.39;76.11;96427.77;1760293;81;20985;-83
2021/11/08 01:13:40;;;;;;;6.97;6.22;;;;;;;6.40;76.10;96437.61;1760453;81;21092;-82
2021/11/08 01:16:06;;;;;;;6.83;5.53;;;;;;;6.41;76.18;96438.75;1760548;81;20950;-83
2021/11/08 01:18:32;;;;;;;7.03;6.10;;;;;;;6.40;76.13;96439.71;1760384;81;21056;-82
2021/11/08 01:20:58;;;;;;;9.65;6.33;;;;;;;6.40;76.23;96437.12;1760279;81;21045;-82
2021/11/08 01:23:27;;;;;;;8.48;6.85;;;;;;;6.40;76.28;96437.61;1760585;81;21030;-82
2021/11/08 01:26:02;;;;;;;12.07;6.33;;;;;;;6.39;76.46;96435.52;1715595;81;20942;-82
2021/11/08 01:28:36;;;;;;;6.55;5.58;;;;;;;6.38;76.30;96439.55;1760190;81;21006;-82
2021/11/08 01:30:58;;;;;;;7.25;6.03;;;;;;;6.37;76.45;96440.02;1757959;81;21076;-82
2021/11/08 01:33:25;;;;;;;6.60;6.00;;;;;;;6.38;76.29;96444.22;1760608;81;22250;-82
2021/11/08 01:36:09;;;;;;;6.92;5.50;;;;;;;6.39;76.23;96444.55;1760380;81;20969;-82
2021/11/08 01:38:36;;;;;;;6.33;5.55;;;;;;;6.39;76.31;96439.39;1758507;81;20965;-82
2021/11/08 01:40:56;;;;;;;5.97;5.37;;;;;;;6.41;76.31;96435.36;1758914;81;21407;-83
2021/11/08 01:43:23;;;;;;;6.72;5.97;;;;;;;6.43;76.38;96448.43;1760137;81;21040;-82
2021/11/08 01:45:49;;;;;;;8.53;6.08;;;;;;;6.41;76.26;96443.91;1757254;82;20986;-82
2021/11/08 01:48:15;;;;;;;5.53;5.03;;;;;;;6.41;76.12;96451.66;1757310;82;21411;-82
2021/11/08 01:50:41;;;;;;;6.53;5.22;;;;;;;6.44;76.01;96458.27;1757570;81;21016;-82
2021/11/08 01:53:07;;;;;;;6.55;5.33;;;;;;;6.49;76.00;96452.97;1757567;82;20985;-83
2021/11/08 01:55:33;;;;;;;5.47;4.95;;;;;;;6.50;75.99;96455.06;1757577;82;21327;-82
2021/11/08 01:57:59;;;;;;;5.90;4.97;;;;;;;6.50;75.98;96460.23;1757675;82;21035;-82
2021/11/08 02:00:25;;;;;;;7.47;5.40;;;;;;;6.50;76.12;96457.16;1757416;82;21045;-82
2021/11/08 02:02:50;;;;;;;7.00;5.17;;;;;;;6.50;75.93;96461.52;1757433;82;21000;-83
2021/11/08 02:05:16;;;;;;;6.42;5.58;;;;;;;6.47;76.03;96454.09;1757554;82;21044;-82
2021/11/08 02:07:42;;;;;;;6.00;5.20;;;;;;;6.43;75.88;96460.53;1757606;82;20958;-82
2021/11/08 02:10:10;;;;;;;8.48;5.17;;;;;;;6.43;75.67;96465.69;1757738;82;20950;-82
2021/11/08 02:12:37;;;;;;;5.47;4.75;;;;;;;6.46;75.73;96470.54;1757580;82;21113;-82
2021/11/08 02:15:05;;;;;;;5.15;4.53;;;;;;;6.48;75.57;96464.26;1757539;81;21100;-82
2021/11/08 02:17:31;;;;;;;8.78;6.53;;;;;;;6.51;75.65;96467.03;1757585;82;20997;-82
2021/11/08 02:19:57;;;;;;;6.10;5.50;;;;;;;6.49;75.67;96464.58;1757444;82;21447;-82
2021/11/08 02:22:24;;;;;;;6.22;4.35;;;;;;;6.46;75.48;96471.34;1757750;82;20973;-82
2021/11/08 02:24:50;;;;;;;5.97;4.87;;;;;;;6.41;75.40;96478.75;1757566;82;21944;-83
2021/11/08 02:27:20;;;;;;;6.25;4.75;;;;;;;6.38;75.46;96480.36;1757661;82;21013;-82
2021/11/08 02:29:46;;;;;;;4.83;4.22;;;;;;;6.37;75.23;96486.48;1757482;82;20938;-82
2021/11/08 02:32:12;;;;;;;6.92;6.05;;;;;;;6.37;75.25;96491.64;1757980;82;20981;-82
2021/11/08 02:34:38;;;;;;;5.15;4.45;;;;;;;6.38;75.24;96487.29;1757700;81;20954;-82
2021/11/08 02:37:05;;;;;;;7.35;5.80;;;;;;;6.38;75.25;96494.55;1757821;82;20949;-82
2021/11/08 02:39:38;;;;;;;6.60;5.65;;;;;;;6.37;75.31;96486.96;1757592;82;21047;-82
2021/11/08 02:42:05;;;;;;;7.90;5.90;;;;;;;6.32;75.51;96483.05;1757588;82;20997;-82
2021/11/08 02:44:31;;;;;;;6.03;4.87;;;;;;;6.27;75.51;96483.19;1757368;82;21670;-82
2021/11/08 02:46:57;;;;;;;8.13;5.92;;;;;;;6.27;75.48;96484.47;1757541;81;21316;-82
2021/11/08 02:49:26;;;;;;;7.58;6.05;;;;;;;6.30;75.46;96481.58;1757409;82;20977;-82
2021/11/08 02:52:04;;;;;;;5.58;4.97;;;;;;;6.31;75.30;96481.43;1757285;82;21410;-82
2021/11/08 02:54:33;;;;;;;6.53;5.00;;;;;;;6.29;75.27;96489.00;1757328;81;21435;-82
2021/11/08 02:56:57;;;;;;;6.08;5.37;;;;;;;6.24;75.11;96499.78;1757184;82;21384;-82
2021/11/08 02:59:25;;;;;;;6.28;5.08;;;;;;;6.22;75.28;96495.74;1757540;82;20988;-82
2021/11/08 03:01:50;;;;;;;7.12;5.03;;;;;;;6.16;75.11;96497.62;1757521;81;20990;-82
2021/11/08 03:04:22;;;;;;;10.60;5.80;;;;;;;6.12;75.18;96494.53;1757697;82;20969;-82
2021/11/08 03:06:44;;;;;;;5.20;4.70;;;;;;;6.13;75.12;96496.16;1756330;82;20988;-81
2021/11/08 03:09:21;;;;;;;5.00;4.30;;;;;;;6.16;75.12;96495.84;1757567;82;20965;-82
2021/11/08 03:11:48;;;;;;;5.55;4.80;;;;;;;6.15;74.95;96494.70;1757581;82;20950;-81
2021/11/08 03:14:16;;;;;;;6.33;4.78;;;;;;;6.17;74.95;96504.39;1757539;82;21406;-82
2021/11/08 03:19:16;;;;;;;7.30;4.42;;;;;;;6.14;74.85;96501.64;1757412;81;21096;-82
2021/11/08 03:21:41;;;;;;;5.83;5.17;;;;;;;6.12;74.84;96502.75;1757178;82;20970;-82
2021/11/08 03:24:08;;;;;;;5.72;4.53;;;;;;;6.08;74.69;96500.97;1757625;82;21068;-82
2021/11/08 03:29:05;;;;;;;5.22;4.50;;;;;;;6.10;74.56;96503.39;1757722;82;21001;-82
2021/11/08 03:31:34;;;;;;;7.60;4.35;;;;;;;6.10;74.56;96505.48;1757392;82;21044;-82
2021/11/08 03:33:59;;;;;;;4.97;4.35;;;;;;;6.10;74.47;96501.62;1757527;81;21012;-82
2021/11/08 03:36:25;;;;;;;7.42;4.80;;;;;;;6.14;74.67;96507.28;1757696;82;21049;-82
2021/11/08 03:38:51;;;;;;;6.90;5.40;;;;;;;6.14;74.46;96502.93;1757471;82;21985;-82
2021/11/08 03:41:18;;;;;;;6.50;4.80;;;;;;;6.14;74.54;96516.31;1730072;82;20973;-82
2021/11/08 03:43:44;;;;;;;5.37;4.87;;;;;;;6.11;74.37;96518.72;1757427;82;21089;-82
2021/11/08 03:46:10;;;;;;;8.20;5.50;;;;;;;6.11;74.41;96516.14;1733207;81;21009;-82
2021/11/08 03:48:35;;;;;;;6.67;4.55;;;;;;;6.14;74.42;96520.99;1732885;83;21356;-82
2021/11/08 03:51:02;;;;;;;6.25;5.05;;;;;;;6.16;74.21;96522.12;1733151;83;20996;-82
2021/11/08 03:53:27;;;;;;;7.37;4.78;;;;;;;6.18;74.14;96518.46;1732947;83;20997;-81
2021/11/08 03:55:53;;;;;;;4.83;3.75;;;;;;;6.22;74.22;96517.67;1733100;83;21371;-82
2021/11/08 03:58:20;;;;;;;5.67;4.37;;;;;;;6.23;74.06;96524.45;1733053;83;20970;-82
2021/11/08 04:00:46;;;;;;;7.67;4.53;;;;;;;6.19;74.02;96524.43;1733128;83;21005;-81
2021/11/08 04:03:13;;;;;;;8.08;6.45;;;;;;;6.19;74.14;96530.88;1733039;83;20981;-82
2021/11/08 04:05:40;;;;;;;7.80;6.45;;;;;;;6.17;74.19;96521.97;1733006;83;21956;-81
2021/11/08 04:08:09;;;;;;;7.37;5.50;;;;;;;6.17;74.11;96519.88;1733031;83;21025;-82
2021/11/08 04:10:36;;;;;;;6.67;5.12;;;;;;;6.18;73.96;96522.78;1733283;83;20973;-81
2021/11/08 04:13:05;;;;;;;5.35;4.20;;;;;;;6.19;73.89;96522.66;1733103;83;21008;-81
2021/11/08 04:15:37;;;;;;;5.70;4.40;;;;;;;6.19;73.88;96520.56;1733080;83;21056;-82
2021/11/08 04:18:05;;;;;;;6.25;5.05;;;;;;;6.16;73.78;96520.84;1732807;83;20981;-82
2021/11/08 04:20:31;;;;;;;8.53;6.00;;;;;;;6.08;73.76;96518.22;1732918;83;21035;-82
2021/11/08 04:22:56;;;;;;;6.60;5.67;;;;;;;6.07;73.89;96517.89;1732912;83;21379;-82
2021/11/08 04:25:24;;;;;;;5.70;4.67;;;;;;;6.07;74.06;96519.98;1733076;83;20977;-82
2021/11/08 04:27:51;;;;;;;5.90;4.58;;;;;;;6.08;73.96;96515.63;1732947;83;20989;-82
2021/11/08 04:30:17;;;;;;;5.30;4.58;;;;;;;6.03;73.83;96514.80;1733003;83;21009;-82
2021/11/08 04:33:01;;;;;;;7.92;5.33;;;;;;;5.96;73.76;96511.99;1733017;83;21344;-82
2021/11/08 04:35:23;;;;;;;5.95;3.83;;;;;;;5.93;73.82;96509.72;1728381;83;21312;-82
2021/11/08 04:37:57;;;;;;;7.08;4.50;;;;;;;5.91;74.01;96507.77;1732031;83;21358;-82
2021/11/08 04:40:24;;;;;;;5.35;4.60;;;;;;;5.87;73.99;96510.78;1731188;83;21128;-82
2021/11/08 04:48:13;;;;;;;7.33;5.62;;;;;;;5.83;74.00;96517.98;1757606;82;20986;-82
2021/11/08 05:22:38;;;;;;;7.70;6.17;;;;;;;5.54;74.59;96540.14;1757546;82;21014;-82
2021/11/08 05:30:10;;;;;;;8.20;7.17;;;;;;;5.52;74.98;96572.14;1757685;82;21001;-82
2021/11/08 05:32:41;;;;;;;8.33;6.20;;;;;;;5.51;74.83;96571.33;1755831;82;21344;-82
2021/11/08 05:35:09;;;;;;;7.78;5.08;;;;;;;5.54;74.84;96577.52;1757555;82;21006;-82
2021/11/08 05:37:35;;;;;;;9.15;5.08;;;;;;;5.59;74.93;96577.06;1757455;82;20963;-82
2021/11/08 05:40:12;;;;;;;7.97;5.50;;;;;;;5.61;74.83;96574.67;1757465;82;21024;-82
2021/11/08 05:42:34;;;;;;;6.15;5.33;;;;;;;5.65;74.89;96589.36;1755697;82;21012;-82
2021/11/08 05:45:01;;;;;;;6.80;5.42;;;;;;;5.66;75.04;96586.63;1750695;81;21060;-82
2021/11/08 05:47:29;;;;;;;5.30;3.60;;;;;;;5.68;75.05;96587.77;1732839;83;21021;-82
2021/11/08 05:49:55;;;;;;;4.87;3.95;;;;;;;5.70;75.39;96589.75;1732928;83;20973;-83
2021/11/08 05:52:20;;;;;;;7.25;4.10;;;;;;;5.72;74.89;96596.38;1732942;83;20985;-82
2021/11/08 05:54:46;;;;;;;6.58;4.42;;;;;;;5.76;74.83;96590.93;1732962;83;21005;-82
2021/11/08 06:51:28;;;;;;;5.72;4.83;;;;;;;6.14;73.78;96658.20;1732959;83;21049;-82
2021/11/08 06:54:00;;;;;;;7.00;4.10;;;;;;;6.09;73.89;96661.72;1732911;83;21016;-82
2021/11/08 06:56:27;;;;;;;6.25;3.62;;;;;;;6.08;73.75;96662.67;1707803;83;21028;-82
2021/11/08 06:58:52;;;;;;;5.58;4.22;;;;;;;6.08;73.94;96667.84;1733074;83;21470;-82
2021/11/08 07:01:18;;;;;;;5.03;4.30;;;;;;;6.05;73.76;96677.16;1733237;83;21068;-82
2021/11/08 07:03:44;;;;;;;8.23;5.87;;;;;;;6.07;73.91;96678.63;1733249;83;20973;-82
2021/11/08 07:06:09;;;;;;;8.33;5.80;;;;;;;6.09;73.99;96678.48;1733153;83;20996;-82
2021/11/08 07:08:35;;;;;;;7.87;5.58;;;;;;;6.06;74.08;96689.91;1718531;83;20968;-82
2021/11/08 07:11:01;;;;;;;8.20;5.20;;;;;;;6.08;74.11;96693.64;1733029;83;21000;-82
2021/11/08 07:13:26;;;;;;;6.75;5.22;;;;;;;6.08;74.24;96702.66;1733277;83;20984;-83
2021/11/08 07:15:52;;;;;;;6.87;4.12;;;;;;;6.08;74.05;96700.89;1733063;83;21437;-82
2021/11/08 07:18:18;;;;;;;7.10;4.00;;;;;;;6.10;73.92;96698.17;1733160;83;20981;-82
2021/11/08 07:20:44;;;;;;;5.45;4.55;;;;;;;6.12;73.87;96694.95;1733288;83;21100;-82
2021/11/08 07:23:09;;;;;;;6.83;4.83;;;;;;;6.16;73.92;96701.44;1733200;83;21359;-82
2021/11/08 07:25:35;;;;;;;6.50;4.55;;;;;;;6.16;74.03;96711.28;1733175;83;20984;-82
2021/11/08 07:28:04;;;;;;;23.62;17.80;;;;;;;6.13;73.92;96715.92;1733094;83;21005;-82
2021/11/08 07:30:30;;;;;;;17.52;13.85;;;;;;;6.11;74.17;96717.36;1732979;83;20981;-82
2021/11/08 07:32:56;;;;;;;10.72;6.67;;;;;;;6.11;74.30;96722.53;1733264;83;21061;-82
2021/11/08 07:35:21;;;;;;;6.40;4.40;;;;;;;6.18;74.40;96726.16;1732933;83;21064;-82
2021/11/08 07:37:47;;;;;;;6.65;4.25;;;;;;;6.26;74.27;96726.71;1733136;83;21041;-82
2021/11/08 07:40:13;;;;;;;7.42;4.70;;;;;;;6.34;74.63;96729.36;1733043;83;21056;-82
2021/11/08 07:42:38;;;;;;;8.08;4.85;;;;;;;6.39;74.44;96727.64;1733096;83;21451;-82
2021/11/08 07:45:05;;;;;;;5.53;4.53;;;;;;;6.42;74.38;96725.58;1733037;81;21103;-82
2021/11/08 07:47:31;;;;;;;5.97;4.08;;;;;;;6.46;74.57;96739.80;1733128;83;21137;-83
2021/11/08 07:49:57;;;;;;;7.72;4.65;;;;;;;6.50;74.35;96741.61;1707988;83;21096;-82
2021/11/08 07:52:23;;;;;;;5.70;4.25;;;;;;;6.51;74.09;96744.55;1733177;83;21352;-82
2021/11/08 07:54:48;;;;;;;10.35;4.60;;;;;;;6.53;74.04;96743.92;1733122;83;20976;-82
2021/11/08 07:57:14;;;;;;;5.58;3.77;;;;;;;6.57;74.20;96743.47;1732984;83;20969;-82
2021/11/08 07:59:41;;;;;;;7.17;4.55;;;;;;;6.63;74.26;96742.05;1707981;83;21463;-82
2021/11/08 08:02:07;;;;;;;7.05;5.00;;;;;;;6.66;73.93;96744.81;1733005;83;21059;-82
2021/11/08 08:04:32;;;;;;;7.15;5.10;;;;;;;6.67;74.26;96752.89;1732980;83;21036;-83
2021/11/08 08:06:58;;;;;;;13.53;8.03;;;;;;;6.70;74.11;96748.75;1732974;83;21037;-82
2021/11/08 08:09:24;;;;;;;10.82;6.92;;;;;;;6.71;73.97;96756.83;1732882;83;21020;-82
2021/11/08 08:11:50;;;;;;;11.57;7.60;;;;;;;6.75;73.45;96756.85;1733100;83;21044;-82
2021/11/08 08:14:16;;;;;;;8.85;6.40;;;;;;;6.78;73.82;96761.72;1732999;83;20987;-82
2021/11/08 08:16:42;;;;;;;7.87;6.30;;;;;;;6.84;73.42;96754.20;1732871;83;21455;-82
2021/11/08 08:19:08;;;;;;;6.87;5.65;;;;;;;6.85;73.35;96764.86;1733052;83;21008;-82
2021/11/08 08:21:34;;;;;;;11.93;7.15;;;;;;;6.87;73.26;96768.10;1733030;83;21048;-82
2021/11/08 08:24:02;;;;;;;7.50;5.65;;;;;;;6.88;73.24;96777.47;1733000;83;21410;-82
2021/11/08 08:26:35;;;;;;;7.37;5.47;;;;;;;6.90;73.32;96772.16;1733154;83;21096;-82
2021/11/08 08:29:04;;;;;;;10.38;6.17;;;;;;;6.93;73.21;96775.72;1733125;83;21315;-82
2021/11/08 08:31:30;;;;;;;8.03;5.12;;;;;;;6.96;73.28;96765.56;1732951;83;21375;-82
2021/11/08 08:33:56;;;;;;;8.20;5.53;;;;;;;7.00;73.26;96772.08;1733081;83;20985;-82
2021/11/08 08:36:22;;;;;;;6.22;4.37;;;;;;;7.04;73.18;96772.11;1733028;83;21398;-82
2021/11/08 08:38:49;;;;;;;9.80;5.00;;;;;;;7.09;72.69;96775.05;1732891;83;20977;-82
2021/11/08 08:41:15;;;;;;;8.65;5.30;;;;;;;7.19;73.02;96782.23;1733062;83;21379;-82
2021/11/08 08:43:40;;;;;;;7.55;5.50;;;;;;;7.29;72.61;96789.88;1732979;83;21028;-82
2021/11/08 08:46:06;;;;;;;9.98;6.58;;;;;;;7.32;72.19;96790.41;1742888;81;21009;-82
2021/11/08 08:48:33;;;;;;;8.48;6.50;;;;;;;7.35;72.28;96785.41;1757557;82;21309;-82
2021/11/08 08:51:01;;;;;;;9.58;6.28;;;;;;;7.38;72.33;96790.28;1757255;82;21052;-82
2021/11/08 08:53:28;;;;;;;5.85;4.97;;;;;;;7.41;72.17;96787.38;1757427;82;21387;-82
2021/11/08 08:55:54;;;;;;;8.43;5.40;;;;;;;7.37;71.73;96785.59;1757444;82;21072;-82
2021/11/08 08:58:20;;;;;;;7.85;5.83;;;;;;;7.41;71.84;96788.67;1757526;82;21412;-82
2021/11/08 09:00:47;;;;;;;9.45;6.20;;;;;;;7.49;72.26;96788.74;1757545;82;21051;-83
2021/11/08 09:03:15;;;;;;;7.67;6.12;;;;;;;7.61;72.29;96797.84;1730935;83;21335;-82
2021/11/08 09:05:41;;;;;;;12.18;6.53;;;;;;;7.71;71.93;96798.56;1757400;82;20988;-82
2021/11/08 09:08:07;;;;;;;9.00;6.37;;;;;;;7.79;71.51;96798.59;1730944;83;21406;-82
2021/11/08 09:10:33;;;;;;;10.03;6.30;;;;;;;7.82;71.01;96808.66;1716495;83;21383;-82
2021/11/08 09:13:01;;;;;;;9.73;5.42;;;;;;;7.86;71.26;96813.52;1757496;82;21054;-81
2021/11/08 09:15:28;;;;;;;6.60;3.90;;;;;;;7.89;71.18;96810.61;1730799;83;21040;-82
2021/11/08 09:17:53;;;;;;;6.12;4.30;;;;;;;7.91;71.04;96813.37;1757601;82;20960;-82
2021/11/08 09:20:19;;;;;;;7.50;4.37;;;;;;;7.95;71.08;96812.09;1731063;83;21399;-82
2021/11/08 09:22:48;;;;;;;7.85;3.80;;;;;;;7.99;70.71;96820.38;1757542;82;20960;-82
2021/11/08 09:25:14;;;;;;;6.45;3.90;;;;;;;7.97;70.10;96823.58;1730841;83;20973;-82
2021/11/08 09:27:42;;;;;;;5.90;3.33;;;;;;;8.00;70.55;96827.17;1757748;82;21003;-82
2021/11/08 09:30:11;;;;;;;7.37;3.52;;;;;;;8.06;70.46;96834.31;1730913;83;21041;-82
2021/11/08 09:32:37;;;;;;;6.97;3.92;;;;;;;8.09;69.81;96830.11;1757435;82;21055;-83
2021/11/08 09:35:04;;;;;;;7.83;4.03;;;;;;;8.10;70.18;96835.61;1730836;83;21403;-82
2021/11/08 09:37:34;;;;;;;6.92;4.03;;;;;;;8.09;69.63;96833.51;1757527;82;20956;-83
2021/11/08 09:40:00;;;;;;;6.65;3.35;;;;;;;8.11;69.62;96839.82;1730819;83;20989;-82
2021/11/08 09:42:27;;;;;;;3.45;2.72;;;;;;;8.10;69.77;96836.91;1757659;82;21334;-82
2021/11/08 09:44:53;;;;;;;7.78;2.47;;;;;;;8.11;69.52;96837.23;1730651;83;20950;-82
2021/11/08 09:47:18;;;;;;;4.70;2.77;;;;;;;8.11;68.82;96838.04;1759478;81;21464;-82
2021/11/08 09:49:52;;;;;;;5.58;2.42;;;;;;;8.07;67.88;96828.97;1733685;83;20981;-82
2021/11/08 09:52:18;;;;;;;5.92;2.60;;;;;;;8.11;68.33;96827.69;1721129;83;21434;-82
2021/11/08 09:54:46;;;;;;;6.40;3.77;;;;;;;8.15;68.29;96827.41;1760127;81;21036;-82
2021/11/08 09:57:12;;;;;;;5.72;3.20;;;;;;;8.20;69.08;96839.39;1733840;83;20969;-82
2021/11/08 09:59:37;;;;;;;5.03;2.62;;;;;;;8.28;69.21;96839.41;1760376;81;21046;-82
2021/11/08 10:02:08;;;;;;;4.42;2.62;;;;;;;8.37;68.66;96832.84;1733950;83;20973;-82
2021/11/08 10:04:33;;;;;;;7.40;3.30;;;;;;;8.47;68.40;96837.91;1732492;83;21394;-82
2021/11/08 10:06:59;;;;;;;5.28;3.00;;;;;;;8.57;67.15;96837.76;1760726;81;20983;-82
2021/11/08 10:09:25;;;;;;;5.95;2.80;;;;;;;8.57;66.38;96832.09;1733840;83;21012;-83
2021/11/08 10:11:51;;;;;;;7.97;3.70;;;;;;;8.61;66.77;96833.88;1760392;81;21011;-82
2021/11/08 10:14:17;;;;;;;4.75;2.60;;;;;;;8.67;66.88;96830.67;1717829;83;21036;-82
2021/11/08 10:16:43;;;;;;;5.25;2.85;;;;;;;8.65;66.41;96828.73;1760489;81;21094;-82
2021/11/08 10:19:12;;;;;;;5.50;2.72;;;;;;;8.62;66.45;96836.79;1733900;83;21383;-83
2021/11/08 10:21:46;;;;;;;5.90;2.75;;;;;;;8.60;65.85;96827.08;1760453;81;21433;-82
2021/11/08 10:24:16;;;;;;;3.90;2.47;;;;;;;8.61;66.19;96831.29;1733828;83;21017;-82
2021/11/08 10:26:43;;;;;;;4.42;2.37;;;;;;;8.61;65.16;96826.11;1760526;81;20991;-82
2021/11/08 10:29:12;;;;;;;3.87;2.85;;;;;;;8.50;64.90;96827.72;1733895;83;21013;-81
2021/11/08 10:31:46;;;;;;;9.75;3.00;;;;;;;8.52;65.48;96824.48;1733866;83;21059;-82
2021/11/08 10:34:12;;;;;;;4.03;2.62;;;;;;;8.63;65.74;96821.13;1760597;81;21433;-82
2021/11/08 10:36:38;;;;;;;8.23;2.77;;;;;;;8.79;65.80;96820.34;1733830;83;20996;-81
2021/11/08 10:39:06;;;;;;;4.75;2.92;;;;;;;8.94;65.78;96821.80;1733895;83;20941;-82
2021/11/08 10:41:36;;;;;;;4.65;2.70;;;;;;;9.08;65.07;96813.87;1721297;83;20969;-82
2021/11/08 10:44:18;;;;;;;4.37;2.47;;;;;;;9.20;64.95;96812.58;1760572;81;21062;-82
2021/11/08 10:46:48;;;;;;;3.02;2.12;;;;;;;9.19;63.69;96812.26;1731808;82;21049;-82
2021/11/08 10:49:17;;;;;;;4.35;1.98;;;;;;;9.08;63.43;96812.58;1729713;83;20962;-82
2021/11/08 10:51:46;;;;;;;4.70;2.37;;;;;;;8.97;63.92;96809.34;1729803;82;21045;-82
2021/11/08 10:54:14;;;;;;;4.30;2.72;;;;;;;8.91;64.25;96816.94;1742960;82;21004;-82
2021/11/08 10:56:57;;;;;;;8.35;3.00;;;;;;;8.91;64.45;96815.16;1742856;82;21021;-82
2021/11/08 10:59:28;;;;;;;4.60;2.65;;;;;;;8.98;64.38;96811.45;1742328;82;21056;-82
2021/11/08 11:01:58;;;;;;;4.05;3.10;;;;;;;9.02;64.04;96808.86;1742380;82;20973;-82
2021/11/08 11:04:40;;;;;;;5.60;3.47;;;;;;;9.02;63.59;96812.25;1756553;82;21035;-82
2021/11/08 11:07:05;;;;;;;5.17;2.72;;;;;;;8.98;63.50;96809.67;1728340;83;20994;-82
2021/11/08 11:09:36;;;;;;;6.37;3.12;;;;;;;8.95;63.83;96810.00;1742847;82;21331;-82
2021/11/08 11:12:15;;;;;;;5.40;3.10;;;;;;;8.96;64.10;96810.32;1742934;82;20965;-82
2021/11/08 11:14:49;;;;;;;8.43;4.42;;;;;;;8.97;64.29;96809.34;1758240;82;20968;-82
2021/11/08 11:17:19;;;;;;;8.08;4.90;;;;;;;8.98;63.58;96810.16;1729661;83;21095;-82
2021/11/08 11:19:45;;;;;;;6.90;3.10;;;;;;;8.99;63.73;96804.81;1742842;82;21406;-82
2021/11/08 11:22:15;;;;;;;6.90;3.33;;;;;;;9.01;63.59;96802.05;1743068;82;21063;-82
2021/11/08 11:24:46;;;;;;;7.35;3.33;;;;;;;9.01;63.62;96798.16;1742444;82;21096;-82
2021/11/08 11:27:28;;;;;;;4.72;2.67;;;;;;;9.06;63.84;96797.19;1741911;82;21012;-82
2021/11/08 11:30:25;;;;;;;5.45;2.85;;;;;;;9.01;63.19;96806.75;1739981;82;21424;-82
2021/11/08 11:33:07;;;;;;;6.72;4.97;;;;;;;8.99;63.00;96805.30;1742341;82;20972;-82
2021/11/08 11:35:48;;;;;;;6.92;3.50;;;;;;;8.94;63.70;96804.95;1711506;84;21050;-82
2021/11/08 11:38:22;;;;;;;8.75;3.37;;;;;;;8.93;63.37;96802.84;1731201;83;21036;-82
2021/11/08 11:41:05;;;;;;;4.45;2.08;;;;;;;8.89;63.26;96800.25;1729756;83;21016;-82
2021/11/08 11:43:38;;;;;;;5.17;2.70;;;;;;;8.81;63.19;96798.16;1758271;82;20991;-82
2021/11/08 11:46:06;;;;;;;4.42;2.22;;;;;;;8.79;63.20;96788.44;1729612;82;21106;-81
2021/11/08 11:48:34;;;;;;;5.58;3.08;;;;;;;8.80;63.42;96784.39;1729950;83;20994;-82
2021/11/08 11:51:00;;;;;;;6.35;4.10;;;;;;;8.86;63.56;96789.41;1729870;83;21041;-82
2021/11/08 11:53:26;;;;;;;8.48;3.80;;;;;;;9.01;63.66;96790.39;1729817;82;20989;-82
2021/11/08 11:55:53;;;;;;;8.23;3.67;;;;;;;9.08;63.84;96787.95;1743038;82;20996;-82
2021/11/08 11:58:20;;;;;;;5.00;2.87;;;;;;;9.19;63.52;96785.03;1743214;82;20969;-82
2021/11/08 12:00:48;;;;;;;7.15;2.77;;;;;;;9.29;63.05;96785.69;1742384;82;21039;-82
2021/11/08 12:03:14;;;;;;;6.60;3.02;;;;;;;9.32;62.60;96786.16;1742267;82;21012;-82
2021/11/08 12:05:44;;;;;;;5.78;2.58;;;;;;;9.31;62.29;96790.22;1715235;82;20973;-82
2021/11/08 12:08:07;;;;;;;4.70;2.85;;;;;;;9.36;62.23;96789.72;1715220;82;21069;-82
2021/11/08 12:10:50;;;;;;;6.70;3.05;;;;;;;9.33;62.41;96782.59;1715212;82;21097;-82
2021/11/08 12:13:23;;;;;;;5.72;2.90;;;;;;;9.26;62.25;96785.99;1718710;82;21127;-82
2021/11/08 12:15:49;;;;;;;;;;;;;;;9.17;61.84;96780.50;1744647;82;20973;-82
2021/11/08 12:18:16;;;;;;;8.60;4.12;;;;;;;9.06;62.19;96786.81;1742407;82;20332;-82
2021/11/08 12:20:48;;;;;;;8.80;4.45;;;;;;;8.97;62.04;96781.33;1715104;82;21008;-82
2021/11/08 12:23:27;;;;;;;7.27;3.53;;;;;;;9.02;62.31;96780.34;1742473;82;20972;-82
2021/11/08 12:25:53;;;;;;;5.90;3.33;;;;;;;8.98;62.57;96775.17;1742268;82;20992;-82
2021/11/08 12:28:23;;;;;;;7.55;4.80;;;;;;;8.98;62.37;96773.38;1742436;82;21338;-82
2021/11/08 12:30:53;;;;;;;9.60;4.62;;;;;;;9.02;62.42;96769.97;1742220;82;21012;-82
2021/11/08 12:33:32;;;;;;;7.30;4.03;;;;;;;9.01;61.97;96782.13;1741941;82;21356;-82
2021/11/08 12:36:12;;;;;;;10.28;3.92;;;;;;;8.94;61.84;96775.14;1742290;82;20946;-82
2021/11/08 12:38:46;;;;;;;8.75;4.22;;;;;;;9.05;62.31;96779.20;1742348;82;21418;-82
2021/11/08 12:41:17;;;;;;;5.78;3.47;;;;;;;9.21;62.61;96780.00;1741471;82;21080;-82
2021/11/08 12:43:53;;;;;;;8.55;4.05;;;;;;;9.31;62.01;96779.36;1742633;82;21044;-82
2021/11/08 12:46:21;;;;;;;7.53;4.62;;;;;;;9.40;62.41;96783.23;1742037;82;21490;-82
2021/11/08 12:48:48;;;;;;;5.72;2.92;;;;;;;9.49;62.48;96784.84;1739596;82;21025;-83
2021/11/08 12:51:16;;;;;;;7.83;3.27;;;;;;;9.51;61.68;96779.81;1739375;82;20989;-83
2021/11/08 12:53:47;;;;;;;6.83;3.33;;;;;;;9.45;62.04;96779.67;1739222;82;21411;-83
2021/11/08 12:56:28;;;;;;;5.92;3.90;;;;;;;9.39;62.21;96791.50;1734526;82;20985;-83
2021/11/08 12:58:58;;;;;;;5.53;3.27;;;;;;;9.33;62.21;96794.75;1739794;82;20945;-83
2021/11/08 13:01:48;;;;;;;5.47;2.50;;;;;;;9.25;62.31;96793.45;1739106;82;21359;-82
2021/11/08 13:04:16;;;;;;;4.95;2.50;;;;;;;9.19;62.32;96792.33;1739422;82;20965;-83
2021/11/08 13:06:42;;;;;;;4.17;2.67;;;;;;;9.10;62.29;96791.99;1739562;82;20981;-83
2021/11/08 13:09:22;;;;;;;6.20;3.22;;;;;;;9.05;62.39;96799.45;1739589;82;20996;-82
2021/11/08 13:11:54;;;;;;;5.10;2.92;;;;;;;9.00;62.34;96796.06;1738967;82;21057;-83
2021/11/08 13:14:34;;;;;;;5.70;4.00;;;;;;;8.96;63.04;96789.59;1739581;82;21327;-82
2021/11/08 13:17:13;;;;;;;4.92;3.05;;;;;;;8.95;63.02;96793.64;1739419;82;21438;-83
2021/11/08 13:19:48;;;;;;;4.20;2.65;;;;;;;8.93;63.02;96788.59;1739521;82;21052;-83
2021/11/08 13:22:32;;;;;;;5.47;2.90;;;;;;;8.89;63.17;96796.37;1739331;82;20961;-83
2021/11/08 13:25:26;;;;;;;6.30;3.05;;;;;;;8.84;62.95;96797.34;1757068;82;21349;-83
2021/11/08 13:27:59;;;;;;;5.22;2.65;;;;;;;8.78;63.12;96797.96;1702735;83;21033;-83
2021/11/08 13:30:38;;;;;;;4.08;2.15;;;;;;;8.73;63.05;96798.94;1757687;82;21338;-82
2021/11/08 13:33:16;;;;;;;4.62;2.77;;;;;;;8.66;63.26;96789.71;1692454;83;22242;-82